Country
Station

 

Weather  for  Malmo/Sturup  -  Sweden    Sweden

  
19 °C (66 °F)
    
 
 

Current METAR for Malmo/Sturup is :

ESMS 201950Z 28007KT 9999 FEW023 BKN036 19/15 Q1010

 

This is a report for Malmo/Sturup - Sweden.
 
The report was made 36 minutes ago, at 19:50 UTC .
The wind was blowing at a speed of 3.6 meters per second (8.1 miles per hour) from west (280°).
 
The temperature was 19 °C (66 °F), with a dew-point at 15 °C (59 °F).
The atmospheric pressure was 1010 hPa (29.83 inHg).
The relative humidity was 77.6%.
 
There were a few clouds at a height of 701 meters (2300 feet) and broken clouds at a height of 1097 meters (3600 feet).
 
The overall visibility was greater than 10 kilometers (6.2 miles).
 

 
 
 
 

Country :   A   B   C   D   E   F   G   H   I   J   K   L   M   N   O   P   Q   R   S   T   U   V   W   Y   Z

 

Site Info  |  Disclaimer  |  Credits  |  Privacy
Contact us  |  Add to favorites
© 2013-2019 METARs - All rights reserved